Terminal Aerodrome Forecast
Issued by NWS Atlanta, GA

Home | Current Version | Previous Version | Text Only | Print | Product List | Glossary On
Versions: 1 2 3 4 5 6 7 8 9 10 11 12 13 14 15 16 17 18 19 20 21 22 23 24 25 26 27 28 29 30 31 32 33 34 35 36 37 38 39 40 41 42 43
000
FTUS42 KFFC 162140 AAB
TAFATL
TAF AMD
KATL 162140Z 1622/1724 09012G18KT P6SM VCSH OVC012
      TEMPO 1622/1624 4SM -SHRA BR BKN007
     FM170000 08010KT P6SM -SHRA OVC008
     FM170300 08008KT 5SM -SHRA BR OVC005
     FM170800 09006KT 4SM -SHRA BR OVC004
     FM171600 13007KT P6SM VCSH BKN009
     FM171900 16006KT P6SM BKN015 BKN035=

USA.gov is the U.S. government's official web portal to all federal, state and local government web resources and services.